Terminal Aerodrome Forecast
Issued by NWS

Home | Current Version | Previous Version | Graphics & Text | Print | Product List | Glossary On
Versions: 1 2 3 4 5 6 7 8 9 10 11 12 13 14 15 16 17
000
FTUS43 KIWX 231100
TAFSBN
TAF
KSBN 231126Z 2312/2412 18011KT P6SM OVC035
      TEMPO 2312/2314 -SHRA
     FM231400 17012KT 6SM BR BKN030
     FM232000 15011KT 5SM BR VCSH OVC015
     FM232200 14010KT 4SM -SHRA BR OVC008
     FM240100 13012KT 3SM RA BR OVC005 WS020/18050KT=

USA.gov is the U.S. government's official web portal to all federal, state and local government web resources and services.